Time;durP1;ratioP1;P1;durP2;ratioP2;P2;SDS_P1;SDS_P2;PMS_P1;PMS_P2;Temp;Humidity;BMP_temperature;BMP_pressure;BME280_temperature;BME280_humidity;BME280_pressure;Samples;Min_cycle;Max_cycle;Signal;HPM_P1;HPM_P2
2022/05/19 00:01:22;;;;;;;22.50;17.63;;;17.50;99.90;;;;;;5036495;28;20081;-80
2022/05/19 00:03:47;;;;;;;22.30;17.07;;;17.40;99.90;;;;;;5059989;28;20045;-80
2022/05/19 00:06:15;;;;;;;27.93;18.27;;;17.40;99.90;;;;;;5028024;28;20128;-81
2022/05/19 00:08:41;;;;;;;26.87;19.27;;;17.50;99.90;;;;;;5033000;28;20102;-80
2022/05/19 00:11:11;;;;;;;23.07;19.17;;;17.50;99.90;;;;;;5040691;28;20127;-80
2022/05/19 00:13:37;;;;;;;23.57;18.43;;;17.50;99.90;;;;;;5018196;28;20044;-81
2022/05/19 00:16:05;;;;;;;22.60;17.53;;;17.50;99.90;;;;;;5039964;28;20033;-80
2022/05/19 00:18:32;;;;;;;25.07;16.70;;;17.50;99.90;;;;;;5057901;28;20044;-80
2022/05/19 00:20:57;;;;;;;26.03;16.47;;;17.50;99.90;;;;;;5019264;28;20048;-80
2022/05/19 00:23:25;;;;;;;27.47;17.53;;;17.50;99.90;;;;;;5042690;28;20109;-80
2022/05/19 00:25:51;;;;;;;25.57;18.97;;;17.50;99.90;;;;;;5048592;28;20033;-80
2022/05/19 00:28:17;;;;;;;23.23;17.27;;;17.50;99.90;;;;;;5063336;28;20451;-82
2022/05/19 00:30:43;;;;;;;27.27;18.47;;;17.40;99.90;;;;;;5036224;28;20051;-84
2022/05/19 00:33:09;;;;;;;25.20;17.60;;;17.30;99.90;;;;;;5042571;28;20076;-80
2022/05/19 00:35:35;;;;;;;23.03;17.27;;;17.30;99.90;;;;;;5044470;28;20037;-81
2022/05/19 00:38:01;;;;;;;23.70;18.00;;;17.30;99.90;;;;;;5054166;28;20040;-80
2022/05/19 00:40:29;;;;;;;22.57;17.13;;;17.30;99.90;;;;;;5026617;28;20612;-80
2022/05/19 00:42:54;;;;;;;27.57;19.07;;;17.20;99.90;;;;;;5035767;28;20080;-81
2022/05/19 00:45:23;;;;;;;24.87;16.73;;;17.20;99.90;;;;;;5029389;28;20064;-80
2022/05/19 00:47:52;;;;;;;26.80;18.70;;;17.10;99.90;;;;;;5023952;28;20041;-84
2022/05/19 00:50:22;;;;;;;26.07;19.50;;;17.10;99.90;;;;;;5054367;28;20041;-80
2022/05/19 00:52:50;;;;;;;24.37;17.80;;;17.00;99.90;;;;;;5042681;28;20140;-83
2022/05/19 00:55:21;;;;;;;25.07;18.07;;;17.00;99.90;;;;;;5034969;28;20135;-80
2022/05/19 00:57:58;;;;;;;23.03;19.10;;;16.90;99.90;;;;;;5041647;28;20506;-82
2022/05/19 01:00:25;;;;;;;27.50;17.90;;;16.90;99.90;;;;;;5055536;28;20881;-81
2022/05/19 01:02:55;;;;;;;28.33;20.13;;;16.80;99.90;;;;;;5033379;28;20067;-82
2022/05/19 01:05:27;;;;;;;30.03;21.70;;;16.80;99.90;;;;;;5040247;28;20098;-82
2022/05/19 01:07:59;;;;;;;28.17;21.93;;;16.80;99.90;;;;;;5078934;28;20066;-81
2022/05/19 01:10:27;;;;;;;32.07;23.70;;;16.80;99.90;;;;;;5064676;22;20041;-83
2022/05/19 01:12:54;;;;;;;31.57;21.97;;;16.80;99.90;;;;;;5042574;28;20182;-80
2022/05/19 01:15:21;;;;;;;28.93;23.33;;;16.80;99.90;;;;;;5045986;28;20071;-80
2022/05/19 01:17:49;;;;;;;33.17;24.67;;;16.70;99.90;;;;;;5022241;28;20055;-81
2022/05/19 01:20:17;;;;;;;33.33;25.03;;;16.70;99.90;;;;;;5023521;28;20127;-81
2022/05/19 01:22:51;;;;;;;36.73;26.47;;;16.70;99.90;;;;;;5039031;28;20041;-81
2022/05/19 01:25:26;;;;;;;31.80;26.07;;;16.60;99.90;;;;;;5036269;28;20414;-80
2022/05/19 01:27:53;;;;;;;32.53;24.17;;;16.60;99.90;;;;;;5053247;28;20076;-83
2022/05/19 01:30:19;;;;;;;34.10;26.07;;;16.60;99.90;;;;;;5059864;28;20040;-81
2022/05/19 01:32:45;;;;;;;35.90;27.30;;;16.60;99.90;;;;;;5021768;28;20091;-81
2022/05/19 01:35:11;;;;;;;32.77;25.13;;;16.60;99.90;;;;;;5018397;28;20044;-82
2022/05/19 01:37:37;;;;;;;37.63;26.47;;;16.50;99.90;;;;;;5038164;28;20041;-80
2022/05/19 01:40:34;;;;;;;40.23;28.17;;;16.50;99.90;;;;;;5035397;28;20037;-82
2022/05/19 01:43:16;;;;;;;32.35;26.15;;;16.50;99.90;;;;;;5038910;28;20052;-81
2022/05/19 01:45:54;;;;;;;40.00;29.00;;;16.50;99.90;;;;;;5044833;28;20049;-81
2022/05/19 01:48:29;;;;;;;36.00;27.50;;;16.50;99.90;;;;;;5036596;28;20047;-81
2022/05/19 01:51:01;;;;;;;39.57;30.63;;;16.40;99.90;;;;;;5051847;28;20044;-81
2022/05/19 01:53:35;;;;;;;38.47;29.57;;;16.40;99.90;;;;;;5064755;28;20102;-81
2022/05/19 01:56:06;;;;;;;41.50;32.03;;;16.40;99.90;;;;;;5039652;28;20049;-81
2022/05/19 01:58:40;;;;;;;47.20;35.27;;;16.40;99.90;;;;;;5015067;28;20518;-81
2022/05/19 02:01:08;;;;;;;40.60;31.25;;;16.30;99.90;;;;;;5036909;28;20099;-81
2022/05/19 02:03:43;;;;;;;50.53;37.80;;;16.30;99.90;;;;;;5015712;28;20517;-81
2022/05/19 02:06:14;;;;;;;52.03;39.07;;;16.30;99.90;;;;;;5055255;28;20037;-82
2022/05/19 02:08:47;;;;;;;40.83;34.27;;;16.20;99.90;;;;;;5019303;28;20056;-81
2022/05/19 02:11:17;;;;;;;51.47;38.50;;;16.30;99.90;;;;;;5032256;28;20040;-82
2022/05/19 02:13:44;;;;;;;43.80;36.17;;;16.30;99.90;;;;;;5064376;28;20107;-80
2022/05/19 02:16:13;;;;;;;52.77;37.93;;;16.20;99.90;;;;;;5043212;28;20044;-82
2022/05/19 02:18:41;;;;;;;55.33;42.10;;;16.20;99.90;;;;;;5038655;28;20044;-81
2022/05/19 02:21:07;;;;;;;51.67;41.43;;;16.20;99.90;;;;;;5036739;28;20080;-83
2022/05/19 02:23:35;;;;;;;59.20;43.87;;;16.20;99.90;;;;;;5020528;28;20045;-81
2022/05/19 02:26:01;;;;;;;68.40;50.57;;;16.10;99.90;;;;;;5074465;28;20453;-81
2022/05/19 02:28:32;;;;;;;63.47;51.57;;;16.10;99.90;;;;;;5049347;28;20037;-81
2022/05/19 02:30:59;;;;;;;47.53;39.80;;;16.10;99.90;;;;;;5022425;28;20124;-83
2022/05/19 02:33:27;;;;;;;56.87;44.33;;;16.10;99.90;;;;;;5015490;28;20056;-84
2022/05/19 02:35:53;;;;;;;57.17;45.40;;;16.10;99.90;;;;;;5038642;28;20049;-81
2022/05/19 02:38:20;;;;;;;62.33;50.87;;;16.00;99.90;;;;;;5040902;28;20048;-81
2022/05/19 02:40:46;;;;;;;64.47;49.73;;;16.00;99.90;;;;;;5014023;28;20410;-81
2022/05/19 02:43:13;;;;;;;54.87;43.63;;;16.00;99.90;;;;;;5057333;28;20055;-82
2022/05/19 02:45:39;;;;;;;60.77;48.07;;;16.00;99.90;;;;;;5036098;28;20033;-80
2022/05/19 02:48:09;;;;;;;79.23;59.13;;;16.00;99.90;;;;;;5041235;28;20148;-82
2022/05/19 02:50:35;;;;;;;60.93;46.60;;;16.10;99.90;;;;;;5018452;28;20056;-81
2022/05/19 02:53:01;;;;;;;70.53;53.97;;;16.00;99.90;;;;;;5029707;28;20684;-81
2022/05/19 02:55:27;;;;;;;65.30;48.70;;;16.00;99.90;;;;;;5038143;28;20048;-81
2022/05/19 02:57:53;;;;;;;82.70;61.03;;;16.10;99.90;;;;;;5065189;28;20075;-80
2022/05/19 03:00:24;;;;;;;71.17;50.23;;;16.10;99.90;;;;;;5036689;28;20052;-81
2022/05/19 03:02:51;;;;;;;82.73;60.07;;;16.00;99.90;;;;;;5035283;28;20107;-83
2022/05/19 03:05:21;;;;;;;78.77;59.47;;;16.00;99.90;;;;;;5035924;28;20040;-81
2022/05/19 03:07:47;;;;;;;76.67;57.47;;;16.00;99.90;;;;;;5035567;28;20068;-80
2022/05/19 03:10:14;;;;;;;61.30;49.90;;;16.00;99.90;;;;;;5023404;28;20091;-80
2022/05/19 03:12:40;;;;;;;82.13;63.27;;;16.10;99.90;;;;;;5020410;28;20044;-81
2022/05/19 03:15:07;;;;;;;70.73;53.33;;;16.10;99.90;;;;;;5016622;28;20182;-82
2022/05/19 03:17:35;;;;;;;65.00;52.30;;;16.10;99.90;;;;;;5038155;28;20051;-81
2022/05/19 03:20:01;;;;;;;65.40;51.57;;;16.10;99.90;;;;;;5038519;28;20053;-81
2022/05/19 03:22:28;;;;;;;86.17;60.63;;;16.10;99.90;;;;;;5035155;28;20051;-81
2022/05/19 03:24:54;;;;;;;79.60;60.63;;;16.10;99.90;;;;;;5038049;28;20529;-80
2022/05/19 03:27:20;;;;;;;68.17;52.17;;;16.10;99.90;;;;;;5034689;28;20041;-80
2022/05/19 03:29:46;;;;;;;70.47;52.97;;;16.20;99.90;;;;;;5022506;28;20552;-80
2022/05/19 03:32:12;;;;;;;73.67;55.17;;;16.20;99.90;;;;;;5037765;28;20045;-82
2022/05/19 03:34:39;;;;;;;70.40;54.57;;;16.20;99.90;;;;;;5030347;28;20052;-82
2022/05/19 03:37:06;;;;;;;69.33;55.90;;;16.20;99.90;;;;;;5021654;28;20041;-80
2022/05/19 03:39:33;;;;;;;70.50;55.00;;;16.20;99.90;;;;;;5046062;28;20546;-81
2022/05/19 03:41:59;;;;;;;81.00;58.70;;;16.30;99.90;;;;;;5055773;28;20048;-81
2022/05/19 03:44:25;;;;;;;73.93;54.70;;;16.30;99.90;;;;;;5065431;28;20412;-79
2022/05/19 03:46:51;;;;;;;72.57;55.10;;;16.30;99.90;;;;;;5034952;28;20558;-80
2022/05/19 03:49:17;;;;;;;78.70;61.30;;;16.30;99.90;;;;;;5035558;28;20127;-80
2022/05/19 03:51:43;;;;;;;89.13;62.83;;;16.30;99.90;;;;;;5029698;28;20450;-81
2022/05/19 03:54:09;;;;;;;81.83;60.80;;;16.30;99.90;;;;;;5018149;28;20049;-81
2022/05/19 03:56:38;;;;;;;78.87;62.20;;;16.30;99.90;;;;;;5020794;28;20136;-81
2022/05/19 03:59:04;;;;;;;86.97;62.97;;;16.30;99.90;;;;;;5037785;28;20106;-82
2022/05/19 04:01:30;;;;;;;83.27;63.77;;;16.30;99.90;;;;;;5025222;28;20072;-83
2022/05/19 04:03:56;;;;;;;74.83;56.40;;;16.20;99.90;;;;;;5051575;28;20132;-80
2022/05/19 04:06:23;;;;;;;65.50;51.50;;;16.20;99.90;;;;;;5067566;28;20029;-81
2022/05/19 04:08:50;;;;;;;74.70;57.10;;;16.20;99.90;;;;;;5030863;28;20683;-82
2022/05/19 04:11:16;;;;;;;69.47;52.50;;;16.20;99.90;;;;;;5013599;28;20063;-81
2022/05/19 04:13:43;;;;;;;87.27;62.67;;;16.20;99.90;;;;;;5014662;28;20506;-82
2022/05/19 04:16:09;;;;;;;73.77;56.00;;;16.20;99.90;;;;;;5035981;28;20045;-81
2022/05/19 04:18:35;;;;;;;84.07;61.83;;;16.20;99.90;;;;;;5036485;28;20391;-82
2022/05/19 04:21:01;;;;;;;69.73;54.87;;;16.20;99.90;;;;;;5043733;28;20038;-81
2022/05/19 04:23:27;;;;;;;67.73;53.57;;;16.30;99.90;;;;;;5050842;28;20052;-80
2022/05/19 04:25:55;;;;;;;68.70;55.00;;;16.30;99.90;;;;;;5060772;28;20098;-82
2022/05/19 04:28:21;;;;;;;68.43;54.60;;;16.30;99.90;;;;;;5050633;28;20053;-81
2022/05/19 04:30:49;;;;;;;68.50;55.23;;;16.40;99.90;;;;;;5035156;28;20075;-81
2022/05/19 04:33:15;;;;;;;68.93;52.27;;;16.40;99.90;;;;;;5014090;28;20056;-80
2022/05/19 04:35:41;;;;;;;71.27;54.83;;;16.50;99.90;;;;;;5021383;28;20045;-81
2022/05/19 04:38:08;;;;;;;77.70;58.10;;;16.60;99.90;;;;;;5011128;28;20662;-81
2022/05/19 04:40:36;;;;;;;72.43;54.70;;;16.60;99.90;;;;;;5015916;28;20037;-80
2022/05/19 04:43:02;;;;;;;66.67;54.70;;;16.70;99.90;;;;;;5036962;28;20098;-80
2022/05/19 04:45:28;;;;;;;69.87;54.97;;;16.80;99.90;;;;;;5021207;28;20051;-79
2022/05/19 04:47:55;;;;;;;65.47;52.27;;;16.90;99.90;;;;;;5032658;28;20151;-78
2022/05/19 04:50:21;;;;;;;66.90;54.53;;;17.00;99.90;;;;;;5071684;28;20041;-78
2022/05/19 04:52:47;;;;;;;63.67;50.00;;;17.00;99.90;;;;;;5038475;28;20517;-79
2022/05/19 04:55:13;;;;;;;68.17;51.13;;;17.10;99.90;;;;;;5037908;28;20530;-78
2022/05/19 04:57:41;;;;;;;70.80;50.27;;;17.20;99.90;;;;;;5053141;28;20041;-78
2022/05/19 05:00:10;;;;;;;67.60;51.13;;;17.20;99.90;;;;;;5070066;28;20052;-80
2022/05/19 05:02:36;;;;;;;64.20;48.83;;;17.20;99.90;;;;;;5036530;28;20091;-80
2022/05/19 05:05:06;;;;;;;58.40;48.00;;;17.30;99.90;;;;;;5040061;28;20049;-78
2022/05/19 05:07:32;;;;;;;60.67;47.43;;;17.40;99.90;;;;;;5041104;28;20128;-82
2022/05/19 05:09:58;;;;;;;61.67;48.63;;;17.40;99.90;;;;;;5038757;28;20071;-81
2022/05/19 05:12:23;;;;;;;59.50;47.57;;;17.40;99.90;;;;;;5066530;28;20103;-78
2022/05/19 05:14:49;;;;;;;58.40;45.57;;;17.50;99.90;;;;;;5057170;28;20045;-78
2022/05/19 05:17:16;;;;;;;55.30;45.33;;;17.50;99.90;;;;;;5023272;28;20048;-79
2022/05/19 05:19:42;;;;;;;58.00;44.23;;;17.60;99.90;;;;;;5043828;28;20059;-80
2022/05/19 05:22:09;;;;;;;56.60;45.27;;;17.70;99.90;;;;;;5044792;28;20040;-79
2022/05/19 05:24:35;;;;;;;51.90;42.60;;;17.70;99.90;;;;;;5060690;28;20041;-78
2022/05/19 05:27:03;;;;;;;55.47;45.13;;;17.80;99.90;;;;;;5041718;28;20041;-78
2022/05/19 05:29:28;;;;;;;53.13;42.50;;;17.90;99.90;;;;;;5054855;28;20037;-80
2022/05/19 05:31:54;;;;;;;51.47;39.83;;;17.90;99.90;;;;;;5043028;28;20143;-80
2022/05/19 05:34:20;;;;;;;51.47;40.87;;;18.00;99.90;;;;;;5043363;28;20708;-79
2022/05/19 05:36:46;;;;;;;45.80;36.47;;;18.10;99.90;;;;;;5041988;28;20128;-78
2022/05/19 05:39:13;;;;;;;48.30;37.20;;;18.20;99.90;;;;;;5037943;28;20048;-79
2022/05/19 05:41:39;;;;;;;41.60;35.13;;;18.20;99.90;;;;;;5041707;28;20048;-79
2022/05/19 05:44:05;;;;;;;43.97;35.47;;;18.40;99.90;;;;;;5052449;28;20049;-79
2022/05/19 05:46:31;;;;;;;38.37;33.10;;;18.50;99.90;;;;;;5038943;28;20119;-80
2022/05/19 05:48:57;;;;;;;37.77;31.43;;;18.70;99.90;;;;;;5052016;28;20079;-78
2022/05/19 05:51:23;;;;;;;37.60;31.00;;;18.90;99.90;;;;;;5027263;28;20068;-81
2022/05/19 05:53:49;;;;;;;33.30;29.23;;;19.30;99.90;;;;;;5034580;28;20083;-78
2022/05/19 05:56:18;;;;;;;34.13;27.73;;;19.70;99.90;;;;;;5052703;28;20474;-79
2022/05/19 05:58:44;;;;;;;29.03;25.93;;;19.90;99.90;;;;;;5035383;28;20139;-81
2022/05/19 06:01:14;;;;;;;28.07;23.20;;;20.00;99.90;;;;;;5054378;28;20072;-80
2022/05/19 06:03:43;;;;;;;28.20;22.90;;;20.20;99.90;;;;;;5038515;28;20060;-78
2022/05/19 06:06:09;;;;;;;28.10;20.87;;;20.20;99.90;;;;;;5056168;28;20045;-83
2022/05/19 06:08:35;;;;;;;22.80;20.37;;;20.20;99.90;;;;;;5032423;28;20412;-80
2022/05/19 06:11:01;;;;;;;20.77;17.17;;;20.20;99.90;;;;;;5049317;28;20272;-78
2022/05/19 06:13:29;;;;;;;18.93;16.00;;;20.20;99.90;;;;;;5031166;28;20041;-77
2022/05/19 06:15:56;;;;;;;24.50;16.13;;;20.20;99.90;;;;;;5049062;28;20057;-78
2022/05/19 06:18:22;;;;;;;21.73;15.97;;;20.30;99.90;;;;;;5040083;28;20049;-77
2022/05/19 06:20:48;;;;;;;19.90;16.33;;;20.30;99.90;;;;;;5048372;28;20514;-78
2022/05/19 06:23:18;;;;;;;19.67;16.27;;;20.40;99.90;;;;;;5035097;28;20048;-80
2022/05/19 06:25:43;;;;;;;18.70;16.17;;;20.50;99.90;;;;;;5016739;28;20045;-79
2022/05/19 06:28:09;;;;;;;22.40;17.27;;;20.50;99.90;;;;;;5050813;28;20063;-78
2022/05/19 06:30:36;;;;;;;19.57;17.10;;;20.50;99.90;;;;;;5036470;28;20410;-79
2022/05/19 06:33:02;;;;;;;22.47;16.63;;;20.60;99.90;;;;;;5028106;28;20049;-82
2022/05/19 06:35:30;;;;;;;22.77;16.50;;;20.60;99.90;;;;;;5018897;28;20136;-81
2022/05/19 06:37:57;;;;;;;20.70;17.00;;;20.60;99.90;;;;;;5048823;28;20036;-80
2022/05/19 06:40:24;;;;;;;19.10;14.93;;;20.70;99.90;;;;;;5049835;28;20060;-83
2022/05/19 06:42:50;;;;;;;22.13;15.40;;;20.80;99.90;;;;;;5040135;28;20040;-81
2022/05/19 06:45:19;;;;;;;18.27;14.17;;;21.00;99.90;;;;;;5021674;28;20056;-81
2022/05/19 06:47:48;;;;;;;17.17;13.97;;;21.10;99.90;;;;;;5027959;28;20434;-87
2022/05/19 06:50:14;;;;;;;18.33;13.77;;;21.20;99.90;;;;;;5018768;28;20055;-83
2022/05/19 06:52:46;;;;;;;16.73;11.70;;;21.30;99.90;;;;;;4987980;28;20045;-84
2022/05/19 06:55:13;;;;;;;14.90;11.50;;;21.40;99.90;;;;;;5027150;28;20045;-84
2022/05/19 06:57:39;;;;;;;17.87;11.33;;;21.40;99.90;;;;;;5007071;28;20391;-82
2022/05/19 07:00:08;;;;;;;15.33;11.40;;;21.40;99.90;;;;;;5004906;28;20099;-87
2022/05/19 07:02:34;;;;;;;14.90;10.57;;;21.40;99.90;;;;;;5027485;28;20049;-82
2022/05/19 07:05:02;;;;;;;13.93;10.83;;;21.30;99.90;;;;;;5026686;28;20499;-81
2022/05/19 07:07:27;;;;;;;13.13;9.70;;;21.30;99.90;;;;;;5013756;28;20111;-80
2022/05/19 07:09:53;;;;;;;13.33;9.37;;;21.20;99.90;;;;;;5099029;22;20048;-83
2022/05/19 07:12:23;;;;;;;14.03;10.33;;;21.10;99.90;;;;;;5048550;28;20041;-82
2022/05/19 07:14:51;;;;;;;14.20;10.83;;;21.20;99.90;;;;;;5043043;28;20044;-82
2022/05/19 07:17:18;;;;;;;14.73;10.63;;;21.20;99.90;;;;;;5045061;28;20052;-82
2022/05/19 07:22:34;;;;;;;14.87;11.67;;;21.30;99.90;;;;;;5025791;28;20040;-82
2022/05/19 07:25:50;;;;;;;17.87;12.80;;;21.30;99.90;;;;;;5049002;28;20147;-84
2022/05/19 07:28:36;;;;;;;16.07;12.63;;;21.30;99.90;;;;;;5030212;28;20574;-84
2022/05/19 07:31:02;;;;;;;16.47;12.90;;;21.30;99.90;;;;;;5031637;28;20052;-83
2022/05/19 07:33:28;;;;;;;16.60;13.30;;;21.30;99.90;;;;;;5042747;28;20047;-83
2022/05/19 07:35:55;;;;;;;17.13;12.83;;;21.30;99.90;;;;;;5029387;28;20040;-83
2022/05/19 07:38:26;;;;;;;20.33;13.63;;;21.30;99.90;;;;;;5049793;28;20047;-84
2022/05/19 07:40:54;;;;;;;17.60;13.60;;;21.20;99.90;;;;;;5032143;28;20044;-84
2022/05/19 07:43:35;;;;;;;17.07;14.07;;;21.20;99.90;;;;;;5015763;28;20044;-86
2022/05/19 07:51:51;;;;;;;19.95;15.15;;;20.70;99.90;;;;;;4956022;29;20083;-81
2022/05/19 07:54:20;;;;;;;19.43;15.30;;;20.70;99.90;;;;;;4907061;29;20494;-81
2022/05/19 07:56:48;;;;;;;22.93;16.67;;;20.60;99.90;;;;;;4922503;29;20093;-79
2022/05/19 07:59:15;;;;;;;22.27;16.70;;;20.60;99.90;;;;;;4905962;28;20047;-80
2022/05/19 08:01:43;;;;;;;22.13;16.87;;;20.60;99.90;;;;;;4908705;29;20111;-81
2022/05/19 08:04:10;;;;;;;21.80;17.37;;;20.50;99.90;;;;;;4922759;29;20074;-82
2022/05/19 08:06:37;;;;;;;20.03;16.67;;;20.50;99.90;;;;;;4925975;29;20043;-81
2022/05/19 08:10:20;;;;;;;22.07;17.67;;;20.50;99.90;;;;;;4925553;29;20549;-81
2022/05/19 08:11:52;;;;;;;22.17;16.60;;;20.50;99.90;;;;;;4925540;29;20050;-81
2022/05/19 08:17:07;;;;;;;19.93;16.47;;;20.30;99.90;;;;;;4914385;29;20501;-82
2022/05/19 08:19:32;;;;;;;18.90;15.20;;;20.20;99.90;;;;;;4925274;28;20058;-79
2022/05/19 08:21:58;;;;;;;23.93;16.53;;;20.20;99.90;;;;;;4918773;29;20091;-80
2022/05/19 08:24:26;;;;;;;25.53;16.83;;;20.20;99.90;;;;;;4909229;28;20045;-78
2022/05/19 08:26:53;;;;;;;28.20;17.50;;;20.10;99.90;;;;;;4946513;28;20039;-80
2022/05/19 08:29:19;;;;;;;24.13;17.37;;;20.10;99.90;;;;;;4925134;28;20039;-80
2022/05/19 08:31:45;;;;;;;21.13;17.07;;;20.20;99.90;;;;;;4923359;29;20523;-80
2022/05/19 08:34:11;;;;;;;22.33;18.37;;;20.20;99.90;;;;;;4907527;29;20051;-80
2022/05/19 08:36:37;;;;;;;22.43;19.40;;;20.30;99.90;;;;;;4921750;29;20134;-79
2022/05/19 08:39:03;;;;;;;22.53;18.00;;;20.40;99.90;;;;;;4942769;29;20079;-80
2022/05/19 08:41:33;;;;;;;20.73;17.80;;;20.50;99.90;;;;;;4938011;29;20050;-82
2022/05/19 08:44:05;;;;;;;20.40;18.03;;;20.70;99.90;;;;;;4945423;29;20062;-80
2022/05/19 08:46:33;;;;;;;21.60;18.23;;;20.80;99.90;;;;;;4925779;28;20050;-79
2022/05/19 08:49:05;;;;;;;22.57;18.53;;;20.90;99.90;;;;;;4925134;29;20042;-79
2022/05/19 08:51:38;;;;;;;22.13;18.90;;;21.10;99.90;;;;;;4938943;28;20425;-81
2022/05/19 08:54:09;;;;;;;25.85;19.63;;;21.20;99.90;;;;;;4942657;29;20051;-80
2022/05/19 08:56:39;;;;;;;21.80;18.87;;;21.30;99.90;;;;;;4944489;29;20045;-80
2022/05/19 08:59:17;;;;;;;22.73;18.70;;;21.40;99.90;;;;;;4929638;29;20476;-80
2022/05/19 09:01:50;;;;;;;21.33;18.47;;;21.50;99.90;;;;;;4944124;29;20441;-79
2022/05/19 09:04:31;;;;;;;21.13;18.63;;;21.60;99.90;;;;;;4945425;29;20059;-80
2022/05/19 09:10:06;;;;;;;20.90;17.67;;;21.80;99.90;;;;;;4926389;29;20504;-81
2022/05/19 09:12:36;;;;;;;19.40;16.33;;;22.00;99.90;;;;;;4940169;29;20070;-79
2022/05/19 09:15:05;;;;;;;21.23;16.63;;;22.20;99.90;;;;;;4912669;29;20106;-80
2022/05/19 09:17:35;;;;;;;21.63;18.38;;;22.30;99.90;;;;;;4934066;29;20098;-81
2022/05/19 09:20:08;;;;;;;21.77;16.67;;;22.50;99.90;;;;;;4926455;29;20050;-80
2022/05/19 09:22:33;;;;;;;26.63;16.70;;;22.60;99.90;;;;;;4926749;29;20047;-80
2022/05/19 09:25:03;;;;;;;22.58;16.33;;;22.70;99.90;;;;;;4939750;29;20035;-83
2022/05/19 09:27:29;;;;;;;20.60;16.15;;;22.90;99.90;;;;;;4926901;28;20031;-80
2022/05/19 09:29:57;;;;;;;19.60;15.85;;;23.00;99.90;;;;;;4942511;29;20043;-81
2022/05/19 09:32:30;;;;;;;20.25;15.82;;;23.10;99.90;;;;;;4907260;28;20056;-74
2022/05/19 09:35:05;;;;;;;17.40;14.80;;;23.20;99.90;;;;;;4927366;28;20039;-83
2022/05/19 09:37:40;;;;;;;18.88;16.33;;;23.40;99.90;;;;;;4933165;28;20043;-80
2022/05/19 09:40:21;;;;;;;19.52;14.82;;;23.60;99.90;;;;;;4934441;28;20134;-81
2022/05/19 09:42:53;;;;;;;20.23;14.63;;;23.70;99.90;;;;;;4915476;28;20106;-80
2022/05/19 09:45:20;;;;;;;18.08;14.98;;;23.70;99.90;;;;;;4952014;28;20043;-80
2022/05/19 09:47:51;;;;;;;18.10;15.48;;;23.90;99.90;;;;;;4919945;28;20067;-80
2022/05/19 09:50:21;;;;;;;22.27;15.80;;;24.10;99.90;;;;;;4965368;28;20241;-79
2022/05/19 09:52:47;;;;;;;17.58;15.05;;;24.30;99.90;;;;;;4964335;28;20050;-78
2022/05/19 09:55:15;;;;;;;17.55;14.50;;;24.60;99.90;;;;;;4944707;28;20093;-79
2022/05/19 09:57:44;;;;;;;16.55;14.70;;;24.80;99.90;;;;;;4929141;28;20051;-79
2022/05/19 10:00:18;;;;;;;15.57;13.73;;;25.00;99.90;;;;;;4948414;28;20055;-79
2022/05/19 10:02:50;;;;;;;18.25;14.88;;;25.30;99.90;;;;;;4927345;28;20501;-80
2022/05/19 10:05:25;;;;;;;20.55;15.50;;;25.50;99.90;;;;;;4965245;28;20039;-80
2022/05/19 10:07:57;;;;;;;16.85;14.48;;;25.70;99.90;;;;;;4930471;28;20031;-81
2022/05/19 10:10:27;;;;;;;17.88;14.43;;;25.70;99.90;;;;;;4947919;28;20039;-82
2022/05/19 10:12:59;;;;;;;16.90;13.73;;;25.80;99.90;;;;;;4945086;28;20138;-79
2022/05/19 10:15:30;;;;;;;16.13;14.07;;;25.70;99.90;;;;;;4914801;28;20109;-79
2022/05/19 10:18:08;;;;;;;17.17;14.32;;;25.70;99.90;;;;;;4912500;29;20055;-81
2022/05/19 10:20:40;;;;;;;18.67;13.90;;;25.70;99.90;;;;;;4923710;29;20051;-81
2022/05/19 10:23:16;;;;;;;19.15;15.35;;;25.70;99.90;;;;;;4933343;28;20138;-80
2022/05/19 10:25:57;;;;;;;20.08;14.90;;;25.70;99.90;;;;;;4942916;29;20425;-81
2022/05/19 10:31:44;;;;;;;19.35;14.82;;;25.70;99.90;;;;;;4939609;29;20232;-80
2022/05/19 10:34:32;;;;;;;16.55;14.75;;;25.80;99.90;;;;;;4923311;29;20075;-81
2022/05/19 10:37:06;;;;;;;17.10;15.23;;;25.90;99.90;;;;;;4939700;29;20058;-81
2022/05/19 10:39:50;;;;;;;16.50;14.63;;;26.00;99.90;;;;;;4930754;28;20071;-82
2022/05/19 10:42:21;;;;;;;;;;;26.20;99.90;;;;;;4928475;29;20125;-81
2022/05/19 10:45:09;;;;;;;17.50;13.80;;;26.40;99.90;;;;;;4920881;29;20270;-81
2022/05/19 10:47:46;;;;;;;18.30;14.68;;;26.80;99.90;;;;;;4935479;29;20031;-81
2022/05/19 10:50:24;;;;;;;17.25;14.70;;;27.30;99.90;;;;;;4920619;29;20073;-81
2022/05/19 10:53:13;;;;;;;16.63;14.90;;;27.80;99.90;;;;;;4906591;29;20430;-80
2022/05/19 10:55:49;;;;;;;14.68;13.10;;;28.30;99.90;;;;;;4937066;29;20069;-81
2022/05/19 10:58:38;;;;;;;16.67;12.65;;;28.50;99.90;;;;;;4938523;29;20489;-81
2022/05/19 11:01:16;;;;;;;15.18;13.57;;;28.50;99.90;;;;;;4932909;29;20118;-80
2022/05/19 11:04:02;;;;;;;13.52;11.57;;;28.50;99.90;;;;;;4903323;29;20118;-81
2022/05/19 11:06:46;;;;;;;13.25;10.75;;;28.70;99.90;;;;;;4935547;29;20031;-81
2022/05/19 11:09:25;;;;;;;11.05;9.32;;;29.00;99.90;;;;;;4936629;29;20066;-79
2022/05/19 11:12:01;;;;;;;14.93;9.15;;;29.30;98.10;;;;;;4932940;28;20494;-83
2022/05/19 11:14:43;;;;;;;13.00;8.52;;;29.30;96.10;;;;;;4918908;28;20513;-81
2022/05/19 11:17:17;;;;;;;9.70;8.23;;;29.40;97.40;;;;;;4936514;28;20418;-81
2022/05/19 11:19:49;;;;;;;10.30;8.90;;;29.80;97.10;;;;;;4920183;28;20061;-81
2022/05/19 11:22:19;;;;;;;13.98;9.13;;;30.00;96.80;;;;;;4903154;28;20074;-79
2022/05/19 11:27:40;;;;;;;10.75;9.23;;;30.20;93.20;;;;;;4937094;28;20379;-80
2022/05/19 11:30:14;;;;;;;10.00;7.35;;;30.10;92.30;;;;;;4920115;28;20078;-78
2022/05/19 11:32:42;;;;;;;7.13;5.78;;;29.80;91.30;;;;;;4935009;28;20047;-78
2022/05/19 11:35:12;;;;;;;7.70;6.85;;;29.60;92.20;;;;;;4936816;28;20043;-80
2022/05/19 11:37:46;;;;;;;9.73;5.72;;;29.60;91.60;;;;;;4938144;28;20070;-81
2022/05/19 11:40:17;;;;;;;7.70;5.10;;;29.40;91.70;;;;;;4920099;28;20136;-79
2022/05/19 11:42:48;;;;;;;8.23;5.93;;;29.20;91.10;;;;;;4934181;28;20088;-78
2022/05/19 11:45:21;;;;;;;5.57;4.70;;;28.90;90.50;;;;;;4934876;28;20517;-78
2022/05/19 11:56:22;;;;;;;6.63;4.80;;;28.40;90.70;;;;;;4942135;28;20051;-80
2022/05/19 11:58:48;;;;;;;6.50;4.20;;;28.40;91.20;;;;;;4935238;28;20416;-80
2022/05/19 12:01:23;;;;;;;4.65;3.50;;;28.40;91.10;;;;;;4920351;29;20039;-80
2022/05/19 12:03:57;;;;;;;4.70;3.17;;;28.40;90.80;;;;;;4937610;29;20051;-80
2022/05/19 12:06:28;;;;;;;6.35;2.67;;;28.20;89.20;;;;;;4933267;29;20047;-80
2022/05/19 12:09:00;;;;;;;6.55;2.90;;;28.10;90.20;;;;;;4916328;28;20043;-80
2022/05/19 12:11:29;;;;;;;3.83;2.97;;;27.90;89.20;;;;;;4935791;29;20073;-80
2022/05/19 12:14:13;;;;;;;6.63;3.00;;;27.70;90.20;;;;;;4905770;28;20097;-80
2022/05/19 12:16:47;;;;;;;4.63;2.95;;;27.50;90.30;;;;;;4937693;29;20047;-79
2022/05/19 12:19:32;;;;;;;4.07;3.05;;;27.30;90.70;;;;;;4932797;29;20473;-79
2022/05/19 12:21:58;;;;;;;8.20;2.85;;;27.10;91.20;;;;;;4938351;28;20042;-79
2022/05/19 12:24:30;;;;;;;6.18;2.92;;;27.00;91.90;;;;;;4932250;28;20062;-81
2022/05/19 12:27:00;;;;;;;5.18;4.13;;;27.00;92.50;;;;;;4910118;28;20039;-80
2022/05/19 12:29:34;;;;;;;8.15;3.63;;;26.90;91.90;;;;;;4935708;28;20058;-79
2022/05/19 12:32:07;;;;;;;4.72;3.95;;;26.80;91.80;;;;;;4932797;28;20047;-80
2022/05/19 12:34:40;;;;;;;6.40;4.00;;;26.60;92.40;;;;;;4920607;28;20043;-80
2022/05/19 12:37:09;;;;;;;6.30;3.33;;;26.30;92.10;;;;;;4919516;28;20050;-80
2022/05/19 12:39:45;;;;;;;6.15;3.35;;;26.10;92.90;;;;;;4919903;28;20043;-80
2022/05/19 12:42:18;;;;;;;3.58;3.25;;;26.00;93.50;;;;;;4919143;28;20481;-80
2022/05/19 12:44:46;;;;;;;7.53;3.45;;;25.80;93.60;;;;;;4937781;28;20054;-80
2022/05/19 12:47:19;;;;;;;7.30;4.15;;;25.70;94.60;;;;;;4939094;28;20051;-80
2022/05/19 12:50:06;;;;;;;;;;;25.60;95.10;;;;;;4921647;28;20054;-80
2022/05/19 12:53:10;;;;;;;10.23;4.25;;;25.50;95.70;;;;;;4937729;28;20377;-80
2022/05/19 12:55:50;;;;;;;13.47;4.07;;;25.30;96.10;;;;;;4938617;28;20058;-80
2022/05/19 12:58:46;;;;;;;7.50;3.80;;;25.10;96.70;;;;;;4938279;28;20039;-80
2022/05/19 13:01:13;;;;;;;12.57;3.90;;;24.90;98.40;;;;;;4938341;28;20058;-80
2022/05/19 13:03:41;;;;;;;9.90;4.28;;;24.70;99.50;;;;;;4923379;28;20047;-80
2022/05/19 13:06:07;;;;;;;15.77;5.15;;;24.50;99.90;;;;;;4908970;28;20457;-80
2022/05/19 13:08:35;;;;;;;15.25;4.28;;;24.40;99.90;;;;;;4923791;28;20054;-80
2022/05/19 13:11:09;;;;;;;18.15;4.25;;;24.20;99.90;;;;;;4937646;28;20050;-80
2022/05/19 13:13:36;;;;;;;;;;;24.00;99.90;;;;;;4936426;29;20047;-78